Time;durP1;ratioP1;P1;durP2;ratioP2;P2;SDS_P1;SDS_P2;PMS_P1;PMS_P2;Temp;Humidity;BMP_temperature;BMP_pressure;BME280_temperature;BME280_humidity;BME280_pressure;Samples;Min_cycle;Max_cycle;Signal;HPM_P1;HPM_P2
2021/05/14 00:00:38;;;;;;;42.25;15.02;;;;;;;18.87;nan;100076.94;5029682;28;20036;-77
2021/05/14 00:03:04;;;;;;;46.67;12.38;;;;;;;18.87;nan;100072.31;5029341;28;20033;-77
2021/05/14 00:05:29;;;;;;;35.80;12.48;;;;;;;19.38;nan;100084.56;5029820;28;20531;-77
2021/05/14 00:07:55;;;;;;;46.50;13.63;;;;;;;18.57;nan;100072.63;5029673;28;20037;-78
2021/05/14 00:10:22;;;;;;;48.20;14.40;;;;;;;18.80;nan;100075.03;5030250;28;20037;-78
2021/05/14 00:12:51;;;;;;;45.90;14.38;;;;;;;19.00;nan;100074.22;5011763;28;20381;-78
2021/05/14 00:15:17;;;;;;;50.78;17.23;;;;;;;19.10;nan;100085.59;5032046;28;20121;-78
2021/05/14 00:17:43;;;;;;;47.88;15.93;;;;;;;18.08;nan;100083.72;5031896;28;20069;-78
2021/05/14 00:20:09;;;;;;;44.08;12.88;;;;;;;18.67;nan;100074.97;5029174;28;20033;-78
2021/05/14 00:22:34;;;;;;;49.42;13.73;;;;;;;19.03;nan;100085.56;5029931;28;20037;-78
2021/05/14 00:25:00;;;;;;;42.63;12.95;;;;;;;19.05;nan;100085.34;5011758;28;20056;-78
2021/05/14 00:27:25;;;;;;;45.10;12.98;;;;;;;18.77;nan;100086.34;5029224;28;20390;-77
2021/05/14 00:29:50;;;;;;;49.08;15.10;;;;;;;19.00;nan;100085.13;5022522;28;20363;-77
2021/05/14 00:32:16;;;;;;;46.10;13.40;;;;;;;19.33;nan;100085.16;5029982;28;20029;-78
2021/05/14 00:34:41;;;;;;;40.08;13.43;;;;;;;18.72;nan;100083.34;5029656;28;20371;-77
2021/05/14 00:37:07;;;;;;;47.35;14.05;;;;;;;19.19;nan;100097.97;5029478;28;20033;-78
2021/05/14 00:39:32;;;;;;;31.98;11.15;;;;;;;19.37;nan;100096.50;5028743;28;20108;-78
2021/05/14 00:41:58;;;;;;;48.90;13.77;;;;;;;18.93;nan;100097.91;5046540;28;20433;-78
2021/05/14 00:44:31;;;;;;;52.55;13.02;;;;;;;19.10;nan;100101.94;5031234;28;20029;-78
2021/05/14 00:47:02;;;;;;;42.38;12.68;;;;;;;18.29;nan;100101.81;5031332;28;20490;-77
2021/05/14 00:49:28;;;;;;;42.88;12.68;;;;;;;18.55;nan;100101.97;5032380;28;20514;-77
2021/05/14 00:51:57;;;;;;;35.28;12.35;;;;;;;18.49;nan;100094.59;5032626;28;20029;-78
2021/05/14 00:54:24;;;;;;;46.70;13.48;;;;;;;18.35;nan;100096.41;5032252;28;20038;-77
2021/05/14 00:56:50;;;;;;;44.70;12.95;;;;;;;18.45;nan;100095.19;5032570;28;20497;-77
2021/05/14 00:59:16;;;;;;;50.95;12.75;;;;;;;17.72;nan;100087.41;5032611;28;20033;-77
2021/05/14 01:01:41;;;;;;;44.35;12.15;;;;;;;17.53;nan;100079.97;5032533;28;20025;-77
2021/05/14 01:04:07;;;;;;;41.55;13.20;;;;;;;17.72;nan;100087.41;5032260;28;20532;-77
2021/05/14 01:06:33;;;;;;;50.10;14.65;;;;;;;18.05;nan;100093.09;5032749;28;20033;-77
2021/05/14 01:09:00;;;;;;;42.63;13.00;;;;;;;18.36;nan;100097.25;5033756;28;20029;-78
2021/05/14 01:11:26;;;;;;;52.72;12.55;;;;;;;18.72;nan;100099.69;5032340;28;20033;-77
2021/05/14 01:13:51;;;;;;;43.42;13.48;;;;;;;18.24;nan;100096.97;5030697;28;20021;-77
2021/05/14 01:16:16;;;;;;;46.67;13.48;;;;;;;17.97;nan;100082.41;5032097;28;20030;-78
2021/05/14 01:18:42;;;;;;;44.30;13.73;;;;;;;18.18;nan;100075.16;5034773;28;20037;-78
2021/05/14 01:21:07;;;;;;;50.20;15.75;;;;;;;18.05;nan;100065.06;5032259;28;20040;-78
2021/05/14 01:23:33;;;;;;;43.75;13.80;;;;;;;18.37;nan;100066.28;5033767;28;20036;-78
2021/05/14 01:25:58;;;;;;;57.70;14.82;;;;;;;17.80;nan;100056.56;5032292;28;20392;-78
2021/05/14 01:28:24;;;;;;;47.35;12.80;;;;;;;18.46;nan;100058.78;5033153;28;20449;-78
2021/05/14 01:30:50;;;;;;;47.72;13.98;;;;;;;18.06;nan;100058.56;5035024;28;20029;-78
2021/05/14 01:33:15;;;;;;;59.72;14.75;;;;;;;18.42;nan;100068.38;5035419;28;20499;-79
2021/05/14 01:35:40;;;;;;;59.08;17.48;;;;;;;17.91;nan;100061.44;5043157;28;20547;-78
2021/05/14 01:38:09;;;;;;;49.47;15.77;;;;;;;18.33;nan;100057.69;5032842;28;20041;-78
2021/05/14 01:40:35;;;;;;;58.13;14.57;;;;;;;18.17;nan;100051.72;5035505;28;20045;-78
2021/05/14 01:43:01;;;;;;;58.47;15.70;;;;;;;18.28;nan;100051.16;5034168;28;20033;-78
2021/05/14 01:45:26;;;;;;;58.38;16.77;;;;;;;18.53;nan;100049.56;5033716;28;20040;-78
2021/05/14 01:47:52;;;;;;;49.50;13.98;;;;;;;18.61;nan;100043.13;5047325;28;20030;-78
2021/05/14 01:50:18;;;;;;;56.85;14.55;;;;;;;18.62;nan;100031.16;5047175;28;20041;-78
2021/05/14 01:52:43;;;;;;;50.47;14.55;;;;;;;18.53;nan;100022.34;5047409;28;20087;-78
2021/05/14 01:55:09;;;;;;;49.28;15.30;;;;;;;18.38;nan;100019.78;5036108;28;20029;-78
2021/05/14 01:57:34;;;;;;;50.20;15.65;;;;;;;18.20;nan;100019.50;5035406;28;20033;-78
2021/05/14 01:59:59;;;;;;;74.22;19.45;;;;;;;18.46;nan;100023.38;5034796;28;20029;-78
2021/05/14 02:02:25;;;;;;;56.75;17.48;;;;;;;17.87;nan;100020.16;5032771;28;20032;-77
2021/05/14 02:04:50;;;;;;;65.93;20.05;;;;;;;18.25;nan;100021.63;5031692;28;20049;-77
2021/05/14 02:07:16;;;;;;;63.70;19.85;;;;;;;18.02;nan;100017.31;5031325;28;20481;-77
2021/05/14 02:09:41;;;;;;;58.00;18.27;;;;;;;18.35;nan;100025.63;5031244;28;20029;-77
2021/05/14 02:12:08;;;;;;;61.50;20.15;;;;;;;18.62;nan;100023.00;5031245;28;20037;-78
2021/05/14 02:14:34;;;;;;;63.00;20.05;;;;;;;17.56;nan;100034.19;5030721;28;20029;-78
2021/05/14 02:16:59;;;;;;;59.65;19.80;;;;;;;17.74;nan;100036.41;5013996;28;20025;-78
2021/05/14 02:19:24;;;;;;;61.28;20.30;;;;;;;17.86;nan;100036.72;5031987;28;20033;-78
2021/05/14 02:21:50;;;;;;;59.35;18.55;;;;;;;17.80;nan;100038.34;5032095;28;20032;-78
2021/05/14 02:24:15;;;;;;;58.70;18.55;;;;;;;18.25;nan;100037.97;5044530;28;20120;-77
2021/05/14 02:26:40;;;;;;;42.40;17.90;;;;;;;18.06;nan;100044.97;5051114;28;20035;-78
2021/05/14 02:29:06;;;;;;;59.20;20.20;;;;;;;18.01;nan;100053.75;5050801;28;20090;-77
2021/05/14 02:31:31;;;;;;;65.00;20.17;;;;;;;18.02;nan;100035.53;5038374;28;20116;-78
2021/05/14 02:33:56;;;;;;;61.10;21.33;;;;;;;18.23;nan;100035.44;5030528;28;20045;-77
2021/05/14 02:36:22;;;;;;;53.60;19.23;;;;;;;18.62;nan;100031.16;5030753;28;20064;-77
2021/05/14 02:38:48;;;;;;;56.85;18.77;;;;;;;18.86;nan;100037.97;5030976;28;20029;-78
2021/05/14 02:41:14;;;;;;;45.58;18.52;;;;;;;18.33;nan;100035.03;5036135;28;20045;-77
2021/05/14 02:43:41;;;;;;;54.47;21.75;;;;;;;18.54;nan;100034.91;5030982;28;20072;-78
2021/05/14 02:46:06;;;;;;;55.58;20.77;;;;;;;18.38;nan;100030.66;5045649;28;20029;-77
2021/05/14 02:48:32;;;;;;;69.82;21.40;;;;;;;18.38;nan;100029.84;5043750;28;20068;-77
2021/05/14 02:50:57;;;;;;;60.50;22.85;;;;;;;18.63;nan;100032.84;5030327;28;20452;-77
2021/05/14 02:53:23;;;;;;;67.97;21.38;;;;;;;18.59;nan;100031.56;5030271;28;20033;-78
2021/05/14 02:55:48;;;;;;;68.45;20.08;;;;;;;18.54;nan;100034.06;5030535;28;20057;-77
2021/05/14 02:58:14;;;;;;;66.45;22.83;;;;;;;18.38;nan;100030.66;5045775;28;20061;-77
2021/05/14 03:00:40;;;;;;;57.50;20.08;;;;;;;18.53;nan;100022.34;5030510;28;20452;-77
2021/05/14 03:03:06;;;;;;;66.30;21.60;;;;;;;18.62;nan;100022.16;5030814;28;20421;-77
2021/05/14 03:05:31;;;;;;;59.85;22.10;;;;;;;18.66;nan;100021.53;5030416;28;20029;-78
2021/05/14 03:07:56;;;;;;;55.90;20.58;;;;;;;18.64;nan;100020.06;5030459;28;20441;-78
2021/05/14 03:10:22;;;;;;;60.17;22.00;;;;;;;18.38;nan;100025.22;5028662;28;20025;-78
2021/05/14 03:12:47;;;;;;;72.03;23.27;;;;;;;17.92;nan;100025.03;5029656;28;20646;-77
2021/05/14 03:15:13;;;;;;;54.88;21.13;;;;;;;18.31;nan;100032.53;5030121;28;20033;-77
2021/05/14 03:17:38;;;;;;;71.57;21.17;;;;;;;18.47;nan;100033.22;5028500;28;20030;-77
2021/05/14 03:20:06;;;;;;;68.38;21.95;;;;;;;18.44;nan;100031.75;5029843;28;20033;-77
2021/05/14 03:22:31;;;;;;;65.25;22.52;;;;;;;18.11;nan;100043.31;5030137;28;20032;-77
2021/05/14 03:24:56;;;;;;;65.30;23.17;;;;;;;18.70;nan;100033.72;5030802;28;20033;-77
2021/05/14 03:27:22;;;;;;;65.35;24.67;;;;;;;18.60;nan;100031.34;5018684;28;20025;-77
2021/05/14 03:29:47;;;;;;;51.22;20.35;;;;;;;18.88;nan;100019.50;5029581;28;20064;-77
2021/05/14 03:32:12;;;;;;;75.07;22.20;;;;;;;18.78;nan;100024.53;5029222;28;20033;-77
2021/05/14 03:34:38;;;;;;;57.03;21.00;;;;;;;18.42;nan;100013.94;5030043;28;20078;-77
2021/05/14 03:37:04;;;;;;;63.10;22.10;;;;;;;18.81;nan;100016.78;5014862;28;20025;-77
2021/05/14 03:39:29;;;;;;;62.05;20.40;;;;;;;18.65;nan;100017.13;5029367;28;20124;-77
2021/05/14 03:44:39;;;;;;;65.07;20.70;;;;;;;18.43;nan;100015.63;5029406;28;20091;-77
2021/05/14 03:47:05;;;;;;;58.65;21.75;;;;;;;18.05;nan;100013.38;5029758;28;20390;-77
2021/05/14 03:49:30;;;;;;;56.08;21.85;;;;;;;18.50;nan;100013.75;5045105;28;20469;-77
2021/05/14 03:51:56;;;;;;;59.80;19.52;;;;;;;18.77;nan;100017.41;5029482;28;20033;-78
2021/05/14 03:54:21;;;;;;;62.75;22.88;;;;;;;18.58;nan;100019.00;5042974;28;20026;-78
2021/05/14 03:56:48;;;;;;;62.08;22.80;;;;;;;18.60;nan;100012.28;5043988;28;20033;-78
2021/05/14 03:59:14;;;;;;;66.47;24.00;;;;;;;18.52;nan;100008.94;5030109;28;20032;-77
2021/05/14 04:01:39;;;;;;;68.20;20.73;;;;;;;18.85;nan;100008.19;5031344;28;20033;-77
2021/05/14 04:04:05;;;;;;;75.15;23.17;;;;;;;18.96;nan;100002.97;5029245;28;20036;-78
2021/05/14 04:06:30;;;;;;;88.80;28.35;;;;;;;18.50;nan;100013.75;5029165;28;20037;-78
2021/05/14 04:08:56;;;;;;;88.65;26.50;;;;;;;18.83;nan;100016.56;5027660;28;20025;-77
2021/05/14 04:11:45;;;;;;;72.53;23.25;;;;;;;18.77;nan;100014.69;5028736;28;20037;-77
2021/05/14 04:14:29;;;;;;;77.75;24.38;;;;;;;19.09;nan;100014.91;5029575;28;20133;-77
2021/05/14 04:16:59;;;;;;;84.80;27.30;;;;;;;19.04;nan;100019.13;5029258;28;20045;-77
2021/05/14 04:19:25;;;;;;;81.63;25.70;;;;;;;18.87;nan;100020.56;5028842;28;20048;-77
2021/05/14 04:21:53;;;;;;;89.00;25.92;;;;;;;18.87;nan;100012.38;5030485;28;20036;-77
2021/05/14 04:24:19;;;;;;;79.82;24.92;;;;;;;19.22;nan;100015.78;5015571;28;20066;-77
2021/05/14 04:26:44;;;;;;;85.10;26.50;;;;;;;19.20;nan;100015.13;5032829;28;20022;-77
2021/05/14 04:29:10;;;;;;;78.22;26.27;;;;;;;19.14;nan;100020.59;5033165;28;20040;-78
2021/05/14 04:31:35;;;;;;;77.80;26.00;;;;;;;18.94;nan;100018.66;5032370;28;20029;-77
2021/05/14 04:34:00;;;;;;;83.63;26.58;;;;;;;18.84;nan;100015.53;5033232;28;20546;-77
2021/05/14 04:36:26;;;;;;;87.50;26.38;;;;;;;18.95;nan;100016.81;5032772;28;20064;-77
2021/05/14 04:38:51;;;;;;;85.18;25.25;;;;;;;19.31;nan;100018.25;5048153;28;20124;-77
2021/05/14 04:41:16;;;;;;;74.35;25.23;;;;;;;19.35;nan;100022.25;5032639;28;20039;-77
2021/05/14 04:43:42;;;;;;;62.63;19.50;;;;;;;19.46;nan;100024.34;5026522;28;20061;-77
2021/05/14 04:46:07;;;;;;;85.88;25.30;;;;;;;18.74;nan;100021.38;5033109;28;20040;-77
2021/05/14 04:48:32;;;;;;;89.85;24.23;;;;;;;18.77;nan;100015.50;5033436;28;20037;-78
2021/05/14 04:50:58;;;;;;;78.38;22.75;;;;;;;18.97;nan;100003.78;5018286;28;20034;-77
2021/05/14 04:53:28;;;;;;;74.55;24.13;;;;;;;18.70;nan;100011.91;5018490;28;20535;-78
2021/05/14 04:55:53;;;;;;;68.00;23.17;;;;;;;18.47;nan;100011.44;5034209;28;20041;-78
2021/05/14 04:58:19;;;;;;;75.32;24.92;;;;;;;18.25;nan;100002.56;5036505;28;20033;-78
2021/05/14 05:00:44;;;;;;;78.43;22.48;;;;;;;18.78;nan;100003.56;5034883;28;20029;-78
2021/05/14 05:03:09;;;;;;;78.65;25.90;;;;;;;18.26;nan;99999.63;5034683;28;20469;-78
2021/05/14 05:05:36;;;;;;;72.90;24.75;;;;;;;18.02;nan;99992.00;5033454;28;20052;-78
2021/05/14 05:08:01;;;;;;;71.13;25.05;;;;;;;18.78;nan;100000.00;5028922;28;20385;-77
2021/05/14 05:10:26;;;;;;;92.53;28.67;;;;;;;18.53;nan;100005.16;5032522;28;20120;-78
2021/05/14 05:12:52;;;;;;;100.45;27.60;;;;;;;19.05;nan;100001.69;5032346;28;20029;-78
2021/05/14 05:15:18;;;;;;;80.63;27.88;;;;;;;18.91;nan;100007.34;5014509;28;20029;-77
2021/05/14 05:17:43;;;;;;;75.88;25.80;;;;;;;18.93;nan;100003.38;5032839;28;20040;-77
2021/05/14 05:20:09;;;;;;;69.22;23.73;;;;;;;18.85;nan;99997.28;5032378;28;20030;-77
2021/05/14 05:22:35;;;;;;;87.45;29.35;;;;;;;18.92;nan;99998.97;5030918;28;20036;-77
2021/05/14 05:25:00;;;;;;;80.22;29.73;;;;;;;18.40;nan;99983.38;5032602;28;20496;-77
2021/05/14 05:27:27;;;;;;;115.60;33.08;;;;;;;18.22;nan;99960.28;5031565;28;20029;-77
2021/05/14 05:29:52;;;;;;;277.95;48.55;;;;;;;19.14;nan;99956.00;5033277;28;20128;-77
2021/05/14 05:32:17;;;;;;;309.80;54.13;;;;;;;25.03;nan;99941.59;5031914;28;20104;-77
2021/05/14 05:34:42;;;;;;;275.27;57.55;;;;;;;25.23;nan;99952.13;5030787;28;20025;-78
2021/05/14 05:37:08;;;;;;;225.27;52.53;;;;;;;-145.71;100.00;60690.53;5032397;28;20025;-77
2021/05/14 05:39:33;;;;;;;324.88;58.85;;;;;;;-145.71;100.00;60690.53;5012573;28;20051;-77
2021/05/14 05:41:59;;;;;;;301.05;55.55;;;;;;;31.99;nan;100017.13;5030310;28;20536;-77
2021/05/14 05:44:24;;;;;;;255.15;50.97;;;;;;;16.65;nan;99997.84;5031211;28;20032;-77
2021/05/14 05:46:50;;;;;;;178.10;43.28;;;;;;;14.66;nan;99996.72;5020622;28;20034;-77
2021/05/14 05:49:16;;;;;;;192.50;43.97;;;;;;;14.82;nan;99992.19;5031943;28;20042;-78
2021/05/14 05:51:41;;;;;;;201.63;45.17;;;;;;;15.43;nan;100001.09;5032112;28;20137;-77
2021/05/14 05:54:08;;;;;;;180.63;41.50;;;;;;;15.34;nan;100002.22;5030526;28;20112;-77
2021/05/14 05:56:34;;;;;;;237.15;46.30;;;;;;;15.66;nan;100009.13;5036102;28;20061;-77
2021/05/14 05:58:59;;;;;;;149.05;38.60;;;;;;;15.64;nan;100005.75;5044014;28;20075;-79
2021/05/14 06:01:24;;;;;;;97.43;32.60;;;;;;;15.70;nan;100002.38;5035132;28;20068;-78
2021/05/14 06:03:49;;;;;;;118.45;35.17;;;;;;;16.11;nan;100011.88;5034861;28;20029;-79
2021/05/14 06:06:15;;;;;;;148.80;35.50;;;;;;;16.29;nan;100017.72;5038081;28;20068;-79
2021/05/14 06:08:41;;;;;;;127.38;35.78;;;;;;;16.07;nan;100019.53;5038071;28;20124;-79
2021/05/14 06:11:07;;;;;;;67.85;27.05;;;;;;;16.14;nan;100025.88;5037795;28;20485;-79
2021/05/14 06:13:34;;;;;;;91.03;30.73;;;;;;;16.02;nan;100011.97;5037581;28;20040;-79
2021/05/14 06:16:00;;;;;;;100.28;31.45;;;;;;;15.37;nan;100021.66;5052347;28;20033;-80
2021/05/14 06:18:28;;;;;;;58.92;27.38;;;;;;;15.59;nan;100014.47;5037336;28;20057;-79
2021/05/14 06:20:54;;;;;;;109.10;32.53;;;;;;;15.89;nan;100025.34;5030510;28;20048;-79
2021/05/14 06:23:19;;;;;;;87.18;29.52;;;;;;;15.63;nan;100028.50;5036508;28;20037;-79
2021/05/14 06:25:45;;;;;;;74.30;27.85;;;;;;;15.92;nan;100026.84;5036994;28;20025;-79
2021/05/14 06:28:18;;;;;;;102.88;31.35;;;;;;;15.94;nan;100020.19;5052387;28;20036;-79
2021/05/14 06:30:44;;;;;;;99.15;30.77;;;;;;;15.63;nan;100029.31;5036717;28;20056;-79
2021/05/14 06:33:09;;;;;;;96.03;29.45;;;;;;;15.97;nan;100030.66;5035461;28;20393;-79
2021/05/14 06:35:35;;;;;;;63.97;28.63;;;;;;;16.04;nan;100022.63;5027281;28;20043;-79
2021/05/14 06:38:00;;;;;;;45.45;22.10;;;;;;;15.49;nan;100032.00;5019974;28;20037;-79
2021/05/14 06:40:26;;;;;;;102.35;31.33;;;;;;;15.96;nan;100023.56;5018613;28;20030;-79
2021/05/14 06:42:51;;;;;;;92.90;31.27;;;;;;;15.90;nan;100023.47;5031362;28;20071;-79
2021/05/14 06:45:17;;;;;;;59.92;26.50;;;;;;;15.79;nan;100022.06;5033846;28;20051;-79
2021/05/14 06:47:42;;;;;;;67.18;26.08;;;;;;;15.78;nan;100015.81;5032866;28;20076;-79
2021/05/14 06:50:08;;;;;;;57.17;23.52;;;;;;;15.35;nan;100018.28;5017718;28;20393;-79
2021/05/14 06:52:35;;;;;;;72.38;26.10;;;;;;;15.46;nan;100010.72;5011059;28;20148;-78
2021/05/14 06:55:03;;;;;;;49.17;21.23;;;;;;;15.84;nan;100016.94;5033537;28;20037;-78
2021/05/14 06:57:28;;;;;;;70.55;23.38;;;;;;;15.95;nan;100013.75;5033036;28;20038;-78
2021/05/14 06:59:54;;;;;;;55.60;20.35;;;;;;;16.01;nan;100023.00;5032889;28;20033;-78
2021/05/14 07:02:19;;;;;;;58.03;22.48;;;;;;;16.19;nan;100023.47;5032547;28;20103;-78
2021/05/14 07:04:44;;;;;;;50.20;20.40;;;;;;;15.99;nan;100027.78;5023450;28;20029;-78
2021/05/14 07:07:10;;;;;;;67.60;23.02;;;;;;;16.53;nan;100032.81;5032485;28;20500;-78
2021/05/14 07:09:35;;;;;;;47.45;22.15;;;;;;;15.71;nan;100031.16;5022715;28;20550;-79
2021/05/14 07:12:01;;;;;;;62.65;24.30;;;;;;;16.15;nan;100024.00;5039430;28;20026;-79
2021/05/14 07:14:26;;;;;;;67.18;26.33;;;;;;;16.18;nan;100037.19;5031397;28;20029;-79
2021/05/14 07:16:52;;;;;;;58.40;22.50;;;;;;;16.06;nan;100034.13;5030797;28;20045;-79
2021/05/14 07:19:17;;;;;;;60.38;21.25;;;;;;;15.69;nan;100033.19;5030600;28;20033;-79
2021/05/14 07:21:43;;;;;;;46.92;20.15;;;;;;;15.93;nan;100042.91;5012824;28;20451;-78
2021/05/14 07:24:09;;;;;;;58.97;23.95;;;;;;;16.15;nan;100043.84;5029910;28;20488;-78
2021/05/14 07:26:35;;;;;;;51.28;20.83;;;;;;;16.48;nan;100043.41;5027741;28;20030;-77
2021/05/14 07:29:02;;;;;;;61.80;24.08;;;;;;;15.99;nan;100039.47;5028047;28;20087;-76
2021/05/14 07:31:28;;;;;;;62.42;24.13;;;;;;;16.25;nan;100044.41;5029479;28;20064;-77
2021/05/14 07:33:53;;;;;;;44.65;21.95;;;;;;;16.18;nan;100038.03;5029149;28;20600;-77
2021/05/14 07:36:19;;;;;;;54.88;23.88;;;;;;;16.68;nan;100049.03;5028502;28;20038;-77
2021/05/14 07:38:44;;;;;;;49.25;20.73;;;;;;;16.31;nan;100043.66;5028968;28;20034;-78
2021/05/14 07:41:11;;;;;;;61.50;25.63;;;;;;;16.67;nan;100052.81;5026575;28;20515;-77
2021/05/14 07:43:36;;;;;;;51.53;21.67;;;;;;;16.53;nan;100046.41;5029765;28;20056;-78
2021/05/14 07:46:02;;;;;;;45.47;20.58;;;;;;;16.18;nan;100043.47;5030547;28;20025;-78
2021/05/14 07:48:28;;;;;;;44.92;20.42;;;;;;;16.15;nan;100046.53;5030493;28;20036;-78
2021/05/14 07:50:53;;;;;;;39.67;21.10;;;;;;;16.46;nan;100049.00;5029717;28;20033;-78
2021/05/14 07:53:19;;;;;;;48.72;20.33;;;;;;;16.67;nan;100059.06;5029793;28;20511;-79
2021/05/14 07:55:44;;;;;;;46.17;19.88;;;;;;;16.81;nan;100054.66;5024776;28;20071;-78
2021/05/14 07:58:10;;;;;;;43.33;17.48;;;;;;;16.44;nan;100063.84;5029102;28;20112;-79
2021/05/14 08:00:40;;;;;;;43.40;19.67;;;;;;;16.35;nan;100052.25;5030037;28;20025;-79
2021/05/14 08:03:05;;;;;;;35.72;16.40;;;;;;;15.94;nan;100060.88;5021919;28;20071;-79
2021/05/14 08:05:31;;;;;;;42.00;18.63;;;;;;;16.02;nan;100059.94;5029549;28;20362;-79
2021/05/14 08:08:06;;;;;;;45.17;18.50;;;;;;;15.88;nan;100063.50;5028232;28;20537;-79
2021/05/14 08:10:32;;;;;;;43.45;20.85;;;;;;;16.04;nan;100064.16;5029060;28;20123;-79
2021/05/14 08:12:57;;;;;;;47.00;17.50;;;;;;;16.15;nan;100067.41;5020997;28;20030;-78
2021/05/14 08:15:22;;;;;;;44.90;18.70;;;;;;;16.04;nan;100069.59;5028645;28;20029;-79
2021/05/14 08:17:52;;;;;;;52.63;20.17;;;;;;;16.59;nan;100064.63;5025288;28;20037;-79
2021/05/14 08:20:18;;;;;;;52.97;22.23;;;;;;;16.14;nan;100069.28;5032528;28;20029;-79
2021/05/14 08:22:43;;;;;;;48.72;18.50;;;;;;;16.09;nan;100077.97;5032801;28;20412;-79
2021/05/14 08:25:11;;;;;;;53.03;20.75;;;;;;;16.16;nan;100079.94;5027424;28;20025;-79
2021/05/14 08:27:36;;;;;;;51.75;21.30;;;;;;;16.27;nan;100088.44;5032047;28;20068;-79
2021/05/14 08:30:04;;;;;;;55.35;23.02;;;;;;;15.99;nan;100079.31;5031798;28;20107;-79
2021/05/14 08:32:29;;;;;;;49.95;21.95;;;;;;;16.21;nan;100082.94;5033952;28;20029;-78
2021/05/14 08:34:55;;;;;;;45.30;20.60;;;;;;;16.33;nan;100086.84;5033730;28;20088;-79
2021/05/14 08:37:21;;;;;;;59.55;23.80;;;;;;;16.30;nan;100087.22;5033677;28;20052;-78
2021/05/14 08:39:46;;;;;;;50.08;22.67;;;;;;;16.49;nan;100099.38;5040835;28;20045;-78
2021/05/14 08:42:13;;;;;;;52.10;22.65;;;;;;;16.42;nan;100091.16;5027293;28;20033;-78
2021/05/14 08:44:39;;;;;;;42.58;19.73;;;;;;;16.31;nan;100087.06;5035927;28;20041;-79
2021/05/14 08:47:06;;;;;;;45.33;21.92;;;;;;;16.29;nan;100078.25;5031577;28;20026;-79
2021/05/14 08:49:32;;;;;;;48.63;21.42;;;;;;;15.83;nan;100074.91;5032185;28;20029;-79
2021/05/14 08:51:59;;;;;;;45.28;20.83;;;;;;;15.23;nan;100071.22;5032092;28;20057;-79
2021/05/14 08:54:24;;;;;;;52.00;21.95;;;;;;;15.13;nan;100070.63;5038088;28;20033;-79
2021/05/14 08:56:49;;;;;;;51.20;21.88;;;;;;;15.44;nan;100078.66;5031706;28;20095;-79
2021/05/14 08:59:14;;;;;;;50.28;21.27;;;;;;;15.63;nan;100075.41;5031455;28;20033;-78
2021/05/14 09:01:41;;;;;;;39.03;19.90;;;;;;;16.12;nan;100071.34;5017158;28;20026;-78
2021/05/14 09:04:09;;;;;;;42.08;18.10;;;;;;;15.80;nan;100072.56;5030897;28;20037;-78
2021/05/14 09:06:42;;;;;;;42.53;17.77;;;;;;;16.22;nan;100071.03;5030202;28;20588;-78
2021/05/14 09:09:10;;;;;;;40.80;18.95;;;;;;;15.97;nan;100068.63;5033570;28;20110;-79
2021/05/14 09:11:51;;;;;;;44.47;19.48;;;;;;;15.47;nan;100072.03;5044157;28;20508;-79
2021/05/14 09:14:38;;;;;;;42.63;21.27;;;;;;;16.24;nan;100071.72;5024710;28;20397;-79
2021/05/14 09:17:17;;;;;;;43.40;20.38;;;;;;;16.69;nan;100075.19;5016916;28;20038;-78
2021/05/14 09:19:47;;;;;;;49.67;21.58;;;;;;;16.26;nan;100075.09;5041472;28;20064;-78
2021/05/14 09:22:23;;;;;;;53.53;20.98;;;;;;;15.88;nan;100071.63;5032455;28;20062;-79
2021/05/14 09:24:57;;;;;;;39.13;19.33;;;;;;;15.76;nan;100072.09;5018710;28;20069;-78
2021/05/14 09:27:28;;;;;;;52.15;20.65;;;;;;;15.92;nan;100072.97;5019182;28;20048;-79
2021/05/14 09:29:57;;;;;;;41.47;18.85;;;;;;;15.71;nan;100077.22;5022058;28;20045;-79
2021/05/14 09:32:28;;;;;;;44.47;19.85;;;;;;;15.49;nan;100069.94;5033168;28;20033;-79
2021/05/14 09:34:56;;;;;;;42.40;20.08;;;;;;;15.74;nan;100067.91;5032865;28;20028;-79
2021/05/14 09:37:24;;;;;;;46.55;19.02;;;;;;;15.77;nan;100070.22;5042888;28;20097;-79
2021/05/14 09:39:50;;;;;;;38.30;18.73;;;;;;;15.51;nan;100068.75;5023534;28;20432;-79
2021/05/14 09:42:30;;;;;;;39.58;18.77;;;;;;;16.28;nan;100064.88;5024197;28;20501;-79
2021/05/14 09:45:20;;;;;;;38.95;18.20;;;;;;;15.95;nan;100065.28;5034297;28;20068;-79
2021/05/14 09:48:16;;;;;;;48.17;19.33;;;;;;;16.30;nan;100070.94;5032557;28;20509;-79
2021/05/14 09:50:46;;;;;;;45.22;20.02;;;;;;;16.46;nan;100067.16;5023457;28;20036;-80
2021/05/14 09:53:13;;;;;;;34.10;16.17;;;;;;;16.69;nan;100067.03;5032446;28;20037;-79
2021/05/14 09:55:45;;;;;;;40.45;18.38;;;;;;;17.11;nan;100076.25;5044459;28;20773;-80
2021/05/14 09:58:18;;;;;;;45.08;19.40;;;;;;;16.34;nan;100069.53;5030693;28;20026;-79
2021/05/14 10:00:44;;;;;;;45.88;19.75;;;;;;;16.39;nan;100075.25;5035116;28;20096;-80
2021/05/14 10:03:11;;;;;;;47.47;19.15;;;;;;;16.48;nan;100070.53;5034523;28;20443;-80
2021/05/14 10:05:38;;;;;;;36.45;17.85;;;;;;;16.91;nan;100076.06;5026983;28;20409;-80
2021/05/14 10:08:05;;;;;;;35.35;16.85;;;;;;;16.79;nan;100069.47;5040145;28;20033;-79
2021/05/14 10:10:32;;;;;;;45.20;18.27;;;;;;;16.52;nan;100074.56;5033130;28;20061;-79
2021/05/14 10:12:59;;;;;;;35.65;15.95;;;;;;;16.80;nan;100071.97;5032245;28;20025;-80
2021/05/14 10:15:25;;;;;;;48.65;19.08;;;;;;;16.77;nan;100069.63;5021951;28;20058;-80
2021/05/14 10:17:52;;;;;;;44.83;19.52;;;;;;;17.25;nan;100069.91;5032256;28;20120;-77
2021/05/14 10:20:27;;;;;;;46.15;18.95;;;;;;;16.86;nan;100073.06;5030967;28;20036;-78
2021/05/14 10:22:53;;;;;;;43.08;18.15;;;;;;;16.76;nan;100068.81;5029599;28;20061;-77
2021/05/14 10:25:34;;;;;;;44.85;20.88;;;;;;;17.12;nan;100078.78;5030553;28;20029;-79
2021/05/14 10:28:05;;;;;;;50.53;23.33;;;;;;;17.41;nan;100076.94;5026651;28;20486;-79
2021/05/14 10:30:31;;;;;;;38.55;20.02;;;;;;;17.08;nan;100084.78;5031682;28;20041;-79
2021/05/14 10:32:56;;;;;;;60.85;24.55;;;;;;;17.03;nan;100076.41;5031836;28;20491;-80
2021/05/14 10:35:34;;;;;;;65.07;26.67;;;;;;;17.50;nan;100094.78;5030892;28;20042;-79
2021/05/14 10:38:05;;;;;;;64.10;23.17;;;;;;;16.98;nan;100087.84;5012557;28;20112;-79
2021/05/14 10:40:31;;;;;;;48.45;24.08;;;;;;;16.72;nan;100091.91;5030945;28;20108;-82
2021/05/14 10:42:58;;;;;;;48.08;21.80;;;;;;;16.70;nan;100090.44;5022495;28;20040;-79
2021/05/14 10:45:36;;;;;;;50.65;21.95;;;;;;;16.87;nan;100091.91;5029492;28;20025;-79
2021/05/14 10:48:03;;;;;;;50.42;21.80;;;;;;;16.34;nan;100096.66;5028753;28;20385;-79
2021/05/14 10:50:37;;;;;;;48.85;21.92;;;;;;;16.54;nan;100091.50;5041442;28;20033;-79
2021/05/14 10:53:26;;;;;;;44.63;18.48;;;;;;;16.94;nan;100089.25;5044931;28;20112;-79
2021/05/14 10:55:53;;;;;;;57.15;20.70;;;;;;;17.13;nan;100091.31;5030726;28;20033;-79
2021/05/14 10:58:37;;;;;;;46.22;20.70;;;;;;;17.50;nan;100092.06;5018945;28;20429;-79
2021/05/14 11:01:02;;;;;;;55.30;19.63;;;;;;;17.72;nan;100092.84;5029509;28;20513;-79
2021/05/14 11:03:32;;;;;;;43.00;18.73;;;;;;;16.49;nan;100086.63;5038524;28;20033;-79
2021/05/14 11:06:11;;;;;;;45.53;19.10;;;;;;;16.53;nan;100100.69;5029604;28;20536;-79
2021/05/14 11:08:37;;;;;;;42.72;17.48;;;;;;;16.63;nan;100103.09;5013450;28;20033;-79
2021/05/14 11:11:10;;;;;;;49.65;19.00;;;;;;;16.01;nan;100096.25;5053642;28;20032;-80
2021/05/14 11:13:52;;;;;;;50.85;19.60;;;;;;;16.26;nan;100103.06;5034492;28;20036;-80
2021/05/14 11:17:05;;;;;;;44.00;20.65;;;;;;;16.71;nan;100095.69;5033241;28;20226;-80
2021/05/14 11:19:30;;;;;;;42.78;16.63;;;;;;;16.55;nan;100095.88;5010811;28;20049;-77
2021/05/14 11:22:09;;;;;;;44.42;18.63;;;;;;;16.62;nan;100102.25;5030837;28;20052;-78
2021/05/14 11:24:52;;;;;;;52.72;20.48;;;;;;;16.59;nan;100094.50;5031630;28;20025;-78
2021/05/14 11:27:19;;;;;;;38.88;17.98;;;;;;;16.78;nan;100103.94;5023549;28;20037;-78